Loami, IL (62661)

3:44 PM CDT on September 01, 2015 (GMT -0500)
Smith Farms | | Change Station
CLOSE
Current Station
Personal Weather Station
Location: New Berlin, IL
Elevation: 656 ft
Nearby Weather Stations

Elev 656 ft 39.72 °N, 89.92 °W | Updated 9 minutes ago

Partly Cloudy
Partly Cloudy
91.6 °F
Feels Like 97 °F
N
8.3
Wind Variable Wind from SE

Today
High -- | Low -- °F
--% Chance of Precip.
Yesterday
High -- | Low -- °F
Precip. -- in
6:27 AM 7:30 PM
Waning Gibbous, 86% visible
Pressure 30.01 in
Visibility 10.0 miles
Clouds Clear
Heat Index 97 °F
Dew Point 69 °F
Humidity 48%
Rainfall 0.00 in
Snow Depth Not available.
UV 7 out of 12
Pollen 10.70 out of 12
Air Quality Not available.
Flu Activity Not available.
METAR KSPI 011952Z 20009KT 10SM CLR 33/21 A3003 RMK AO2 SLP163 T03330211
Pressure 30.01 in
Visibility 10.0 miles
Clouds Clear
Heat Index 97 °F
Dew Point 69 °F
Humidity 48%
Rainfall 0.00 in
Snow Depth Not available.
UV 7 out of 12
Pollen 10.70 out of 12
Air Quality Not available.
Flu Activity Not available.
METAR KSPI 011952Z 20009KT 10SM CLR 33/21 A3003 RMK AO2 SLP163 T03330211

10-Day Weather Forecast

×

Almanac

Astronomy

Sep. 01, 2015 Rise Set
Actual Time
Civil Twilight
Nautical Twilight
Astronomical Twilight
Moon
Length of Visible Light
Length of Day
Tomorrow will be .
, % of the Moon is Illuminated

Today's Extremes

State Highs State Lows

Community

WunderPhotos

Upload Photos

1,851,608 photos uploaded!

WunderBlogs® & News

Nearby

Air Quality

  Air Quality AQ Index Pollutant
Not available.

Snow Depth

Station Depth Elevation

Earthquake Activity

City Distance Mag. Time & Date
Minimum magnitude displayed is 2.5.

Coastal Water Temperatures

Place Temperature

Stations

Nearby Weather Stations

Station Location Temp. Windchill Dew Point Humidity Wind Precip. Elev Updated Type